Time;durP1;ratioP1;P1;durP2;ratioP2;P2;SDS_P1;SDS_P2;PMS_P1;PMS_P2;Temp;Humidity;BMP_temperature;BMP_pressure;BME280_temperature;BME280_humidity;BME280_pressure;Samples;Min_cycle;Max_cycle;Signal;HPM_P1;HPM_P2
2023/01/25 00:00:44;;;;;;;44.70;14.70;;;;;;;-2.05;100.00;102791.85;104108;1282;60345;-79
2023/01/25 00:03:10;;;;;;;37.20;13.20;;;;;;;-2.04;100.00;102790.92;103986;1282;74294;-77
2023/01/25 00:05:38;;;;;;;42.10;13.70;;;;;;;-2.03;100.00;102789.60;104125;1281;60354;-79
2023/01/25 00:08:16;;;;;;;44.10;13.20;;;;;;;-2.04;100.00;102786.71;104086;1282;61467;-79
2023/01/25 00:10:41;;;;;;;40.30;13.50;;;;;;;-2.04;100.00;102782.70;103940;1282;74922;-79
2023/01/25 00:13:07;;;;;;;54.70;15.00;;;;;;;-2.04;100.00;102778.64;103849;1281;60476;-85
2023/01/25 00:15:32;;;;;;;39.50;13.90;;;;;;;-2.03;100.00;102776.23;104080;1281;60406;-76
2023/01/25 00:18:13;;;;;;;37.40;12.90;;;;;;;-2.03;100.00;102780.26;103781;1281;60837;-83
2023/01/25 00:20:39;;;;;;;41.90;12.90;;;;;;;-2.03;100.00;102777.11;104116;1284;61783;-77
2023/01/25 00:23:14;;;;;;;38.50;12.90;;;;;;;-2.02;100.00;102779.52;104068;1282;60405;-79
2023/01/25 00:29:11;;;;;;;33.10;12.10;;;;;;;-2.02;100.00;102783.17;103935;1281;72813;-79
2023/01/25 00:31:54;;;;;;;34.20;11.50;;;;;;;-2.04;100.00;102782.48;104038;1281;63041;-84
2023/01/25 00:34:23;;;;;;;36.80;11.90;;;;;;;-2.04;100.00;102779.16;104029;1282;60452;-77
2023/01/25 00:37:09;;;;;;;36.80;12.60;;;;;;;-2.06;100.00;102777.32;104163;1282;74211;-78
2023/01/25 00:39:35;;;;;;;39.90;11.70;;;;;;;-2.04;100.00;102776.69;104070;1281;74854;-79
2023/01/25 00:42:00;;;;;;;32.70;11.50;;;;;;;-2.03;100.00;102776.20;104102;1282;60361;-79
2023/01/25 00:44:26;;;;;;;35.00;11.60;;;;;;;-2.03;100.00;102770.91;104167;1284;60396;-79
2023/01/25 00:46:51;;;;;;;31.90;11.30;;;;;;;-2.02;100.00;102771.05;103896;1283;60777;-78
2023/01/25 00:49:23;;;;;;;31.20;12.60;;;;;;;-2.02;100.00;102771.91;104192;1282;60900;-82
2023/01/25 00:51:49;;;;;;;31.00;12.40;;;;;;;-2.00;100.00;102768.08;104212;1281;73976;-76
2023/01/25 00:54:15;;;;;;;28.70;11.30;;;;;;;-1.99;100.00;102765.88;103933;1282;63359;-79
2023/01/25 00:56:41;;;;;;;39.00;12.00;;;;;;;-2.01;100.00;102762.52;107289;1280;58116;-82
2023/01/25 00:59:06;;;;;;;34.70;11.90;;;;;;;-2.01;100.00;102757.27;107289;1280;58133;-77
2023/01/25 01:01:33;;;;;;;38.80;12.10;;;;;;;-1.99;100.00;102756.92;107270;1280;58033;-78
2023/01/25 01:07:20;;;;;;;42.90;12.10;;;;;;;-1.93;100.00;102752.14;107245;1281;60512;-76
2023/01/25 01:09:46;;;;;;;37.40;12.50;;;;;;;-1.91;100.00;102758.20;107238;1281;58250;-77
2023/01/25 01:15:36;;;;;;;32.00;12.10;;;;;;;-1.86;100.00;102750.91;107282;1280;72281;-77
2023/01/25 01:18:02;;;;;;;34.30;12.70;;;;;;;-1.83;100.00;102747.52;107216;1280;72556;-83
2023/01/25 05:12:50;;;;;;;54.30;17.70;;;;;;;-3.03;100.00;102705.45;103848;1280;616502;-78
2023/01/25 05:15:15;;;;;;;50.70;15.20;;;;;;;-2.95;100.00;102711.67;103980;1285;60812;-78
2023/01/25 05:17:41;;;;;;;57.60;16.40;;;;;;;-2.85;100.00;102714.45;104047;1283;60365;-79
2023/01/25 05:23:39;;;;;;;47.80;14.90;;;;;;;-2.57;100.00;102713.84;102838;1290;601595;-77
2023/01/25 05:28:48;;;;;;;39.00;13.30;;;;;;;-2.39;100.00;102718.19;103012;1295;63154;-78
2023/01/25 05:34:45;;;;;;;42.70;12.80;;;;;;;-2.20;100.00;102724.40;102791;1295;600748;-77
2023/01/25 05:37:23;;;;;;;40.10;12.70;;;;;;;-2.15;100.00;102725.06;103076;1292;60271;-77
2023/01/25 05:39:52;;;;;;;36.10;12.00;;;;;;;-2.09;100.00;102724.02;103085;1289;60597;-76
2023/01/25 05:42:21;;;;;;;54.10;15.00;;;;;;;-2.03;100.00;102722.67;103163;1288;72659;-74
2023/01/25 05:48:08;;;;;;;44.00;15.40;;;;;;;-1.93;100.00;102724.14;103013;1288;197378;-76
2023/01/25 05:50:46;;;;;;;46.20;14.90;;;;;;;-1.91;100.00;102720.63;103387;1291;60377;-76
2023/01/25 05:53:11;;;;;;;41.10;13.80;;;;;;;-1.87;100.00;102724.34;103619;1285;61611;-83
2023/01/25 05:55:37;;;;;;;37.70;13.70;;;;;;;-1.83;100.00;102728.60;103638;1286;60421;-74
2023/01/25 05:58:02;;;;;;;41.30;12.60;;;;;;;-1.77;100.00;102731.68;103389;1285;60418;-76
2023/01/25 06:00:28;;;;;;;44.00;12.90;;;;;;;-1.73;100.00;102728.85;106631;1285;58216;-75
2023/01/25 06:02:55;;;;;;;46.80;16.30;;;;;;;-1.67;100.00;102725.20;106884;1284;57964;-77
2023/01/25 06:05:21;;;;;;;47.60;15.10;;;;;;;-1.60;100.00;102721.65;106535;1284;74945;-78
2023/01/25 06:07:46;;;;;;;44.00;13.10;;;;;;;-1.54;100.00;102720.25;106885;1284;58060;-75
2023/01/25 06:10:12;;;;;;;42.30;12.90;;;;;;;-1.46;100.00;102720.28;106714;1284;58423;-76
2023/01/25 06:15:59;;;;;;;33.40;11.70;;;;;;;-1.28;100.00;102715.76;106893;1288;60159;-75
2023/01/25 06:18:24;;;;;;;34.30;12.40;;;;;;;-1.19;100.00;102714.51;106856;1284;58086;-82
2023/01/25 06:20:50;;;;;;;64.60;17.90;;;;;;;-1.08;100.00;102716.57;106906;1284;58104;-76
2023/01/25 06:23:16;;;;;;;92.00;22.40;;;;;;;-1.00;100.00;102717.34;106565;1284;58426;-76
2023/01/25 06:29:06;;;;;;;51.70;16.40;;;;;;;-0.90;100.00;102716.10;106922;1284;60119;-75
2023/01/25 06:31:33;;;;;;;44.20;13.60;;;;;;;-0.85;100.00;102713.91;106552;1285;73815;-76
2023/01/25 06:34:03;;;;;;;39.50;13.50;;;;;;;-0.80;100.00;102710.14;106527;1286;74172;-74
2023/01/25 06:36:29;;;;;;;37.60;12.40;;;;;;;-0.77;100.00;102712.66;106986;1285;73525;-73
2023/01/25 06:38:54;;;;;;;44.90;12.50;;;;;;;-0.69;100.00;102709.84;107026;1285;58509;-76
2023/01/25 06:41:20;;;;;;;35.90;11.80;;;;;;;-0.59;100.00;102706.56;106974;1284;58298;-77
2023/01/25 06:43:48;;;;;;;35.90;12.40;;;;;;;-0.55;100.00;102698.96;107025;1284;58156;-78
2023/01/25 06:46:14;;;;;;;36.80;12.50;;;;;;;-0.49;100.00;102703.19;107000;1285;58250;-77
2023/01/25 06:48:43;;;;;;;40.70;12.80;;;;;;;-0.40;100.00;102700.30;106943;1284;58062;-76
2023/01/25 06:51:11;;;;;;;30.60;11.00;;;;;;;-0.30;100.00;102702.55;106925;1284;60309;-76
2023/01/25 06:53:39;;;;;;;32.50;11.10;;;;;;;-0.18;100.00;102691.98;106948;1285;61419;-75
2023/01/25 06:59:26;;;;;;;39.30;13.20;;;;;;;0.14;100.00;102687.14;106966;1284;73011;-76
2023/01/25 07:11:57;;;;;;;42.30;12.20;;;;;;;0.13;100.00;102707.77;106939;1285;71631;-75
2023/01/25 07:15:09;;;;;;;30.90;9.40;;;;;;;0.16;100.00;102706.41;106951;1284;58308;-75
2023/01/25 07:17:34;;;;;;;31.30;10.60;;;;;;;0.24;100.00;102706.91;106944;1285;73289;-77
2023/01/25 07:20:00;;;;;;;23.40;9.10;;;;;;;0.40;100.00;102695.84;106950;1285;58183;-76
2023/01/25 07:22:25;;;;;;;31.90;9.70;;;;;;;0.58;100.00;102701.70;106965;1285;58042;-78
2023/01/25 07:28:14;;;;;;;31.00;9.10;;;;;;;0.68;100.00;102700.36;106955;1284;73311;-77
2023/01/25 07:30:40;;;;;;;25.60;9.10;;;;;;;0.70;100.00;102695.27;106613;1285;71582;-76
2023/01/25 07:36:28;;;;;;;23.70;8.70;;;;;;;0.73;100.00;102695.30;106952;1284;59980;-77
2023/01/25 07:38:55;;;;;;;33.30;9.10;;;;;;;0.92;100.00;102694.30;107012;1284;58208;-77
2023/01/25 07:41:21;;;;;;;29.50;8.50;;;;;;;1.13;100.00;102690.38;106978;1285;58494;-77
2023/01/25 07:43:47;;;;;;;26.30;9.00;;;;;;;1.54;100.00;102690.83;106817;1285;58076;-77
2023/01/25 07:46:14;;;;;;;26.80;9.30;;;;;;;1.79;100.00;102689.67;106916;1284;58168;-78
2023/01/25 07:48:44;;;;;;;23.40;8.20;;;;;;;2.07;100.00;102689.23;106826;1285;58144;-78
2023/01/25 07:51:22;;;;;;;20.80;8.20;;;;;;;2.23;100.00;102689.92;106924;1285;71680;-77
2023/01/25 07:57:09;;;;;;;18.70;7.70;;;;;;;3.17;100.00;102677.27;106905;1285;72375;-75
2023/01/25 07:59:35;;;;;;;21.00;7.70;;;;;;;4.61;100.00;102674.06;106947;1284;58155;-76
2023/01/25 08:02:00;;;;;;;22.40;8.30;;;;;;;6.31;100.00;102670.82;106949;1285;58014;-75
2023/01/25 08:04:25;;;;;;;26.10;7.80;;;;;;;7.99;100.00;102671.20;106431;1286;58303;-76
2023/01/25 08:06:51;;;;;;;22.50;8.40;;;;;;;9.47;100.00;102664.40;107007;1285;58129;-75
2023/01/25 08:09:20;;;;;;;20.30;8.40;;;;;;;10.56;96.92;102662.13;106950;1284;59610;-78
2023/01/25 08:15:08;;;;;;;16.20;7.10;;;;;;;12.34;67.86;102659.33;106972;1284;73286;-75
2023/01/25 08:17:33;;;;;;;22.40;7.50;;;;;;;12.67;63.08;102654.71;106627;1286;58219;-77
2023/01/25 08:20:00;;;;;;;17.70;7.90;;;;;;;13.09;58.62;102650.23;106958;1285;58118;-78
2023/01/25 08:29:10;;;;;;;16.70;7.70;;;;;;;13.28;51.22;102635.41;106979;1285;72628;-75
2023/01/25 08:31:39;;;;;;;16.20;7.60;;;;;;;13.46;49.09;102633.81;106965;1285;73411;-84
2023/01/25 08:34:05;;;;;;;18.40;7.90;;;;;;;13.78;50.49;102632.61;106947;1284;72893;-76
2023/01/25 08:36:31;;;;;;;17.40;7.70;;;;;;;14.50;47.53;102627.09;106852;1284;58182;-75
2023/01/25 08:39:02;;;;;;;19.40;6.80;;;;;;;14.04;45.32;102625.05;106948;1284;58191;-82
2023/01/25 08:41:30;;;;;;;23.30;7.90;;;;;;;13.76;46.20;102621.13;106906;1284;74038;-76
2023/01/25 08:43:56;;;;;;;17.90;7.00;;;;;;;14.31;46.07;102618.59;106967;1284;73427;-80
2023/01/25 08:46:23;;;;;;;20.70;7.00;;;;;;;14.77;44.96;102614.78;106925;1284;58199;-75
2023/01/25 08:52:13;;;;;;;17.50;6.50;;;;;;;9.69;45.61;102606.15;106883;1284;60099;-75
2023/01/25 08:54:42;;;;;;;16.90;6.70;;;;;;;8.21;48.74;102608.65;106910;1284;74189;-73
2023/01/25 09:00:30;;;;;;;21.50;6.20;;;;;;;5.99;53.28;102603.16;106920;1284;72384;-77
2023/01/25 09:02:55;;;;;;;20.00;6.50;;;;;;;5.45;54.95;102605.71;106892;1284;58165;-75
2023/01/25 09:05:21;;;;;;;18.50;6.50;;;;;;;4.86;56.74;102598.99;106960;1284;58118;-74
2023/01/25 09:17:55;;;;;;;25.80;6.60;;;;;;;3.23;67.92;102599.52;106959;1284;59226;-76
2023/01/25 09:20:22;;;;;;;19.30;5.50;;;;;;;3.05;71.79;102595.04;106937;1284;60051;-77
2023/01/25 09:36:14;;;;;;;16.40;6.20;;;;;;;2.59;90.10;102572.02;107011;1285;58829;-77
2023/01/25 09:38:39;;;;;;;21.50;6.40;;;;;;;2.67;88.68;102571.43;106934;1284;58156;-75
2023/01/25 09:41:17;;;;;;;22.80;6.60;;;;;;;2.72;88.08;102564.33;106957;1284;58260;-76
2023/01/25 09:47:12;;;;;;;21.00;6.10;;;;;;;2.65;88.35;102564.89;106939;1284;61018;-76
2023/01/25 09:50:02;;;;;;;23.20;6.50;;;;;;;2.65;92.04;102561.70;106937;1284;61238;-75
2023/01/25 09:53:11;;;;;;;19.20;5.20;;;;;;;2.63;91.95;102556.17;106967;1284;74061;-74
2023/01/25 09:55:38;;;;;;;21.50;5.70;;;;;;;2.65;93.28;102550.66;106908;1284;73340;-79
2023/01/25 09:58:11;;;;;;;16.60;4.30;;;;;;;2.69;91.85;102549.85;106899;1284;58147;-76
2023/01/25 14:07:59;;;;;;;14.90;4.20;;;;;;;0.87;100.00;102425.93;103868;1285;616624;-84
2023/01/25 14:10:28;;;;;;;17.60;4.80;;;;;;;0.82;100.00;102424.59;104052;1282;146920;-84
2023/01/25 14:12:59;;;;;;;13.60;4.70;;;;;;;0.72;100.00;102423.77;104280;1282;60556;-85
2023/01/25 14:15:26;;;;;;;17.40;4.80;;;;;;;0.63;100.00;102425.27;104221;1280;72550;-85
2023/01/25 14:18:17;;;;;;;15.10;5.40;;;;;;;0.54;100.00;102424.46;104124;1280;73736;-85
2023/01/25 14:20:46;;;;;;;17.50;5.60;;;;;;;0.43;100.00;102421.95;104019;1280;74013;-84
2023/01/25 14:23:26;;;;;;;16.10;5.00;;;;;;;0.34;100.00;102423.19;104160;1282;61318;-85
2023/01/25 14:25:54;;;;;;;15.10;4.90;;;;;;;0.22;100.00;102428.70;104243;1279;60577;-85
2023/01/25 14:28:20;;;;;;;17.10;4.60;;;;;;;0.11;100.00;102429.02;104027;1280;72923;-84
2023/01/25 14:30:51;;;;;;;17.50;4.30;;;;;;;0.00;100.00;102432.52;104268;1282;60289;-85
2023/01/25 14:33:30;;;;;;;21.10;5.20;;;;;;;-0.10;100.00;102433.00;103992;1285;72781;-86
2023/01/25 14:38:56;;;;;;;18.60;5.70;;;;;;;-0.28;100.00;102435.35;102978;1290;601049;-85
2023/01/25 14:41:31;;;;;;;24.70;8.50;;;;;;;-0.38;100.00;102439.64;103169;1290;60357;-85
2023/01/25 14:44:01;;;;;;;27.60;8.90;;;;;;;-0.44;100.00;102438.98;103032;1292;61739;-85
2023/01/25 14:46:34;;;;;;;45.30;13.70;;;;;;;-0.53;100.00;102447.91;103411;1289;73460;-85
2023/01/25 14:49:07;;;;;;;;;;;;;;;-0.64;100.00;102452.08;103172;1289;73141;-85
2023/01/25 14:51:38;;;;;;;21.30;7.10;;;;;;;-0.78;100.00;102449.54;102933;1292;269370;-86
2023/01/25 14:54:13;;;;;;;31.50;11.00;;;;;;;-0.96;100.00;102452.86;103233;1292;62306;-86
2023/01/25 14:56:45;;;;;;;33.30;12.40;;;;;;;-1.11;100.00;102456.14;103049;1294;60386;-86
2023/01/25 14:59:30;;;;;;;45.60;12.80;;;;;;;-1.26;100.00;102454.13;103158;1289;72934;-86
2023/01/25 15:02:00;;;;;;;42.30;11.80;;;;;;;-1.39;100.00;102451.25;103046;1289;73611;-86
2023/01/25 15:04:26;;;;;;;33.80;10.90;;;;;;;-1.52;100.00;102450.47;103079;1291;74190;-86
2023/01/25 15:06:53;;;;;;;25.60;10.00;;;;;;;-1.63;100.00;102452.48;103038;1292;60453;-86
2023/01/25 15:09:32;;;;;;;26.20;9.40;;;;;;;-1.73;100.00;102455.29;103319;1288;60824;-86
2023/01/25 15:12:00;;;;;;;36.80;12.60;;;;;;;-1.86;100.00;102456.37;103349;1291;73416;-86
2023/01/25 15:14:26;;;;;;;29.80;10.30;;;;;;;-1.96;100.00;102450.89;103223;1290;74859;-85
2023/01/25 15:16:54;;;;;;;36.40;12.60;;;;;;;-2.05;100.00;102449.37;103208;1294;60540;-86
2023/01/25 15:19:30;;;;;;;36.20;11.80;;;;;;;-2.13;100.00;102450.77;103176;1289;63198;-86
2023/01/25 15:22:00;;;;;;;34.60;12.20;;;;;;;-2.21;100.00;102450.27;103023;1289;60517;-86
2023/01/25 15:24:26;;;;;;;37.20;12.30;;;;;;;-2.29;100.00;102450.73;102844;1290;74458;-86
2023/01/25 15:26:54;;;;;;;37.30;11.10;;;;;;;-2.38;100.00;102451.10;102956;1289;73764;-85
2023/01/25 15:29:22;;;;;;;36.20;13.50;;;;;;;-2.48;100.00;102448.96;103183;1290;72829;-86
2023/01/25 15:31:50;;;;;;;51.30;16.70;;;;;;;-2.55;100.00;102447.27;103519;1291;63392;-85
2023/01/25 15:34:22;;;;;;;60.30;17.80;;;;;;;-2.63;100.00;102449.67;103422;1289;60616;-86
2023/01/25 15:36:48;;;;;;;54.40;18.60;;;;;;;-2.71;100.00;102449.80;103210;1290;74525;-86
2023/01/25 15:39:16;;;;;;;62.50;19.60;;;;;;;-2.79;100.00;102452.39;103316;1292;61041;-85
2023/01/25 15:41:43;;;;;;;63.90;22.70;;;;;;;-2.87;100.00;102447.23;103285;1292;74100;-86
2023/01/25 15:44:09;;;;;;;56.30;18.40;;;;;;;-2.93;100.00;102445.30;103241;1292;60402;-86
2023/01/25 15:46:38;;;;;;;60.50;18.40;;;;;;;-3.01;100.00;102442.96;103336;1289;62045;-86
2023/01/25 15:49:12;;;;;;;61.50;20.20;;;;;;;-3.10;100.00;102440.35;103380;1292;73511;-86
2023/01/25 15:51:38;;;;;;;60.20;22.30;;;;;;;-3.18;100.00;102443.65;103291;1289;74704;-86
2023/01/25 15:54:20;;;;;;;68.00;22.90;;;;;;;-3.23;100.00;102441.38;103094;1290;600943;-85
2023/01/25 15:56:51;;;;;;;66.10;20.40;;;;;;;-3.33;100.00;102439.74;103017;1289;60420;-85
2023/01/25 15:59:19;;;;;;;57.40;20.70;;;;;;;-3.40;100.00;102439.04;103249;1289;60814;-85
2023/01/25 16:05:19;;;;;;;62.30;20.90;;;;;;;-3.48;100.00;102439.38;102951;1292;600821;-85
2023/01/25 16:07:51;;;;;;;61.00;18.90;;;;;;;-3.53;100.00;102441.89;103119;1291;60281;-86
2023/01/25 16:10:23;;;;;;;62.60;19.90;;;;;;;-3.57;100.00;102443.94;103097;1292;60452;-85
2023/01/25 16:12:49;;;;;;;58.70;21.00;;;;;;;-3.63;100.00;102442.09;103489;1293;72613;-86
2023/01/25 16:15:32;;;;;;;54.60;19.90;;;;;;;-3.62;100.00;102444.13;102894;1295;599339;-85
2023/01/25 16:17:57;;;;;;;53.90;19.50;;;;;;;-3.69;100.00;102443.44;102952;1297;60570;-85
2023/01/25 16:20:23;;;;;;;49.90;18.10;;;;;;;-3.74;100.00;102441.58;103071;1292;60541;-85
2023/01/25 16:22:49;;;;;;;59.40;19.40;;;;;;;-3.80;100.00;102443.09;103297;1294;60413;-85
2023/01/25 16:25:31;;;;;;;57.10;19.20;;;;;;;-3.82;100.00;102445.52;103300;1287;600774;-85
2023/01/25 16:27:59;;;;;;;57.40;18.40;;;;;;;-3.88;100.00;102445.49;103374;1291;60492;-85
2023/01/25 16:30:26;;;;;;;52.00;18.70;;;;;;;-3.93;100.00;102443.05;103113;1297;60607;-86
2023/01/25 16:32:52;;;;;;;60.40;20.00;;;;;;;-3.96;100.00;102443.14;103301;1288;73457;-87
2023/01/25 16:35:35;;;;;;;63.40;21.60;;;;;;;-3.97;100.00;102440.91;103633;1286;600960;-85
2023/01/25 16:41:32;;;;;;;64.50;21.20;;;;;;;-4.03;100.00;102443.14;102881;1294;600169;-85
2023/01/25 16:43:57;;;;;;;71.10;25.80;;;;;;;-4.08;100.00;102443.30;103573;1288;60505;-85
2023/01/25 16:46:23;;;;;;;72.20;25.00;;;;;;;-4.09;100.00;102439.59;103573;1293;60361;-85
2023/01/25 16:52:20;;;;;;;71.30;26.00;;;;;;;-4.13;100.00;102441.41;103042;1295;599630;-85
2023/01/25 16:54:45;;;;;;;82.80;27.40;;;;;;;-4.19;100.00;102445.08;103568;1292;60424;-85
2023/01/25 16:57:27;;;;;;;82.90;29.70;;;;;;;-4.21;100.00;102442.91;102866;1291;601105;-85
2023/01/25 16:59:53;;;;;;;90.70;33.40;;;;;;;-4.25;100.00;102445.36;102916;1294;60428;-85
2023/01/25 17:05:51;;;;;;;122.30;41.40;;;;;;;-4.28;100.00;102442.61;102922;1294;601737;-85
2023/01/25 17:08:17;;;;;;;113.80;41.00;;;;;;;-4.34;100.00;102441.10;103191;1293;60422;-85
2023/01/25 17:10:42;;;;;;;125.00;44.10;;;;;;;-4.37;100.00;102439.90;103184;1288;60444;-85
2023/01/25 17:13:08;;;;;;;125.50;45.50;;;;;;;-4.40;100.00;102445.41;103274;1292;60478;-84
2023/01/25 17:15:34;;;;;;;136.30;47.60;;;;;;;-4.42;100.00;102443.67;103257;1295;60434;-85
2023/01/25 17:17:59;;;;;;;153.10;52.90;;;;;;;-4.46;100.00;102439.39;103457;1288;62319;-86
2023/01/25 17:20:25;;;;;;;130.80;47.10;;;;;;;-4.49;100.00;102438.04;103400;1291;247379;-84
2023/01/25 17:22:50;;;;;;;198.70;66.80;;;;;;;-4.53;100.00;102435.03;103465;1291;60379;-86
2023/01/25 17:25:17;;;;;;;168.60;57.00;;;;;;;-4.55;100.00;102437.96;103136;1295;60383;-84
2023/01/25 17:27:42;;;;;;;168.90;58.20;;;;;;;-4.61;100.00;102435.08;103126;1289;60430;-84
2023/01/25 17:30:09;;;;;;;177.80;60.50;;;;;;;-4.65;100.00;102434.19;103317;1295;60351;-85
2023/01/25 17:32:34;;;;;;;175.30;63.10;;;;;;;-4.68;100.00;102436.88;102703;1299;73189;-84
2023/01/25 17:35:00;;;;;;;185.90;67.80;;;;;;;-4.70;100.00;102438.20;102638;1295;60381;-84
2023/01/25 17:37:29;;;;;;;194.30;67.30;;;;;;;-4.70;100.00;102438.94;102492;1298;60479;-84
2023/01/25 17:39:55;;;;;;;185.90;64.70;;;;;;;-4.70;100.00;102434.91;105984;1294;60763;-84
2023/01/25 17:42:28;;;;;;;182.90;62.80;;;;;;;-4.71;100.00;102435.65;106000;1294;58233;-84
2023/01/25 17:44:55;;;;;;;190.90;65.40;;;;;;;-4.73;100.00;102435.45;105971;1294;74705;-83
2023/01/25 17:47:41;;;;;;;181.90;64.00;;;;;;;-4.74;100.00;102436.18;105759;1296;73881;-84
2023/01/25 17:50:15;;;;;;;179.60;63.50;;;;;;;-4.72;100.00;102437.70;105707;1296;58521;-84
2023/01/25 17:52:43;;;;;;;168.70;60.20;;;;;;;-4.74;100.00;102437.98;105651;1297;61648;-84
2023/01/25 17:55:09;;;;;;;169.80;61.20;;;;;;;-4.77;100.00;102436.98;105587;1296;61363;-84
2023/01/25 17:57:36;;;;;;;161.10;57.60;;;;;;;-4.82;100.00;102438.35;105746;1296;58617;-84
2023/01/25 18:00:06;;;;;;;167.10;58.20;;;;;;;-4.86;100.00;102437.46;105606;1296;58167;-84
2023/01/25 18:02:40;;;;;;;150.80;55.90;;;;;;;-4.85;100.00;102440.23;105665;1296;73485;-84
2023/01/25 18:05:11;;;;;;;163.50;58.60;;;;;;;-4.85;100.00;102442.66;105356;1301;61774;-85
2023/01/25 18:07:37;;;;;;;152.10;55.00;;;;;;;-4.88;100.00;102442.34;105353;1301;60341;-85
2023/01/25 18:10:06;;;;;;;147.30;51.10;;;;;;;-4.90;100.00;102441.45;105308;1299;58041;-84
2023/01/25 18:12:36;;;;;;;144.90;52.60;;;;;;;-4.93;100.00;102439.72;105663;1297;73500;-84
2023/01/25 18:15:06;;;;;;;135.40;50.20;;;;;;;-4.95;100.00;102436.19;105654;1298;71428;-84
2023/01/25 18:17:38;;;;;;;137.50;49.90;;;;;;;-4.94;100.00;102438.23;105488;1297;62623;-84
2023/01/25 18:20:09;;;;;;;134.60;49.30;;;;;;;-4.95;100.00;102441.84;105652;1297;61308;-84
2023/01/25 18:22:40;;;;;;;128.10;47.40;;;;;;;-4.98;100.00;102443.78;105577;1298;73325;-84
2023/01/25 18:25:26;;;;;;;127.00;46.30;;;;;;;-5.02;100.00;102438.43;105662;1295;73704;-83
2023/01/25 18:27:54;;;;;;;136.10;48.70;;;;;;;-5.03;100.00;102436.05;105879;1292;71903;-84
2023/01/25 18:30:42;;;;;;;122.30;44.60;;;;;;;-5.03;100.00;102438.16;106128;1288;62213;-84
2023/01/25 18:33:12;;;;;;;103.80;39.70;;;;;;;-5.04;100.00;102436.67;105766;1297;59014;-84
2023/01/25 18:35:44;;;;;;;106.40;40.40;;;;;;;-5.04;100.00;102437.69;105581;1298;72437;-84
2023/01/25 18:38:13;;;;;;;99.10;37.40;;;;;;;-5.07;100.00;102430.97;105591;1296;74785;-84
2023/01/25 18:40:48;;;;;;;108.60;39.10;;;;;;;-5.07;100.00;102435.99;105607;1299;72141;-85
2023/01/25 18:43:20;;;;;;;112.50;41.10;;;;;;;-5.12;100.00;102426.58;105591;1297;60759;-85
2023/01/25 18:45:56;;;;;;;96.80;37.20;;;;;;;-5.11;100.00;102428.77;105485;1300;60399;-84
2023/01/25 18:48:52;;;;;;;107.30;37.10;;;;;;;-5.15;100.00;102429.06;105377;1302;72381;-84
2023/01/25 18:51:43;;;;;;;98.10;35.40;;;;;;;-5.17;100.00;102427.15;105149;1304;73970;-84
2023/01/25 18:54:17;;;;;;;97.50;34.60;;;;;;;-5.20;100.00;102429.95;105233;1303;73709;-84
2023/01/25 18:56:49;;;;;;;109.00;38.80;;;;;;;-5.24;100.00;102429.38;105221;1303;62171;-84
2023/01/25 18:59:15;;;;;;;104.40;37.00;;;;;;;-5.25;100.00;102425.55;104705;1308;61898;-84
2023/01/25 19:01:41;;;;;;;102.60;38.10;;;;;;;-5.26;100.00;102421.61;104336;1312;58435;-84
2023/01/25 19:04:09;;;;;;;106.00;39.20;;;;;;;-5.27;100.00;102420.62;104425;1309;58538;-84
2023/01/25 19:06:35;;;;;;;120.00;44.40;;;;;;;-5.30;100.00;102419.07;104678;1309;73096;-84
2023/01/25 23:20:54;;;;;;;68.30;22.40;;;;;;;-9.22;100.00;102321.52;103880;1280;612970;-81
2023/01/25 23:23:19;;;;;;;62.00;22.30;;;;;;;-8.92;100.00;102321.02;104092;1283;147535;-80
2023/01/25 23:28:49;;;;;;;60.10;22.90;;;;;;;-8.69;100.00;102316.84;103739;1282;600194;-79
2023/01/25 23:31:20;;;;;;;56.30;22.20;;;;;;;-8.67;100.00;102317.63;103853;1283;61856;-79
2023/01/25 23:33:59;;;;;;;58.20;22.20;;;;;;;-8.64;100.00;102315.71;103691;1283;60675;-79
2023/01/25 23:36:31;;;;;;;60.10;22.90;;;;;;;-8.58;100.00;102317.40;103693;1283;73399;-79
2023/01/25 23:42:28;;;;;;;79.50;30.20;;;;;;;-8.52;100.00;102321.06;103799;1282;600844;-79
2023/01/25 23:44:53;;;;;;;73.90;27.30;;;;;;;-8.44;100.00;102321.95;103632;1283;60514;-79
2023/01/25 23:47:19;;;;;;;64.50;26.50;;;;;;;-8.42;100.00;102318.17;103880;1285;60459;-79
2023/01/25 23:49:44;;;;;;;60.80;25.00;;;;;;;-8.41;100.00;102314.11;103668;1282;60428;-78
2023/01/25 23:52:10;;;;;;;63.90;25.50;;;;;;;-8.39;100.00;102316.42;103790;1286;60411;-79
2023/01/25 23:58:07;;;;;;;74.20;26.00;;;;;;;-8.33;100.00;102312.71;102824;1289;601011;-79
